createdAt,value
2024-03-10T00:00:40.482Z,12.27
2024-03-10T00:03:08.459Z,11.85
2024-03-10T00:05:36.480Z,12.27
2024-03-10T00:08:04.067Z,11.77
2024-03-10T00:10:31.184Z,12.07
2024-03-10T00:12:58.400Z,11.20
2024-03-10T00:15:25.626Z,12.18
2024-03-10T00:17:54.028Z,10.75
2024-03-10T00:20:22.021Z,12.07
2024-03-10T00:22:51.777Z,11.65
2024-03-10T00:25:20.197Z,11.70
2024-03-10T00:27:47.241Z,11.73
2024-03-10T00:30:15.049Z,11.27
2024-03-10T00:32:43.218Z,10.97
2024-03-10T00:35:12.401Z,12.27
2024-03-10T00:37:42.717Z,12.63
2024-03-10T00:40:10.245Z,13.18
2024-03-10T00:42:38.371Z,11.57
2024-03-10T00:45:06.051Z,13.30
2024-03-10T00:47:33.115Z,12.40
2024-03-10T00:50:00.829Z,11.10
2024-03-10T00:52:27.779Z,11.85
2024-03-10T00:54:55.051Z,11.55
2024-03-10T00:57:22.276Z,12.03
2024-03-10T00:59:49.526Z,12.10
2024-03-10T01:02:16.919Z,12.20
2024-03-10T01:04:44.688Z,11.43
2024-03-10T01:07:11.718Z,11.63
2024-03-10T01:09:39.049Z,10.87
2024-03-10T01:12:07.068Z,11.85
2024-03-10T01:14:34.539Z,12.38
2024-03-10T01:17:06.048Z,12.65
2024-03-10T01:19:33.001Z,11.80
2024-03-10T01:22:00.295Z,11.77
2024-03-10T01:24:27.660Z,12.00
2024-03-10T01:26:54.899Z,12.13
2024-03-10T01:29:24.004Z,12.23
2024-03-10T01:31:51.470Z,12.68
2024-03-10T01:34:21.010Z,12.67
2024-03-10T01:36:48.066Z,11.95
2024-03-10T01:39:15.406Z,12.48
2024-03-10T01:41:43.315Z,12.15
2024-03-10T01:44:10.612Z,12.18
2024-03-10T01:46:38.173Z,12.70
2024-03-10T01:49:06.526Z,12.27
2024-03-10T01:51:33.816Z,11.43
2024-03-10T01:54:01.497Z,12.90
2024-03-10T01:56:28.996Z,12.15
2024-03-10T01:58:56.451Z,11.67
2024-03-10T02:01:24.231Z,11.35
2024-03-10T02:03:51.321Z,12.05
2024-03-10T02:06:19.115Z,12.27
2024-03-10T02:08:47.984Z,12.07
2024-03-10T02:11:15.728Z,12.00
2024-03-10T02:13:43.152Z,12.02
2024-03-10T02:16:11.246Z,11.95
2024-03-10T02:18:39.442Z,12.05
2024-03-10T02:21:10.516Z,12.27
2024-03-10T02:23:45.974Z,13.40
2024-03-10T02:26:16.421Z,12.25
2024-03-10T02:29:16.037Z,12.25
2024-03-10T02:32:06.076Z,13.73
2024-03-10T02:34:52.596Z,12.13
2024-03-10T02:37:39.161Z,12.40
2024-03-10T02:40:25.368Z,13.75
2024-03-10T02:43:11.233Z,13.82
2024-03-10T02:45:57.331Z,13.20
2024-03-10T02:48:24.897Z,12.63
2024-03-10T02:50:52.424Z,13.57
2024-03-10T02:53:19.379Z,14.40
2024-03-10T02:55:47.038Z,13.25
2024-03-10T02:58:14.514Z,13.15
2024-03-10T03:00:41.927Z,13.15
2024-03-10T03:03:10.099Z,12.03
2024-03-10T03:05:40.871Z,14.20
2024-03-10T03:08:08.969Z,13.00
2024-03-10T03:10:36.556Z,13.10
2024-03-10T03:13:04.064Z,14.20
2024-03-10T03:15:31.315Z,15.23
2024-03-10T03:17:59.364Z,14.77
2024-03-10T03:20:28.079Z,12.65
2024-03-10T03:22:56.017Z,14.32
2024-03-10T03:25:23.801Z,14.38
2024-03-10T03:27:51.994Z,14.53
2024-03-10T03:30:19.844Z,15.38
2024-03-10T03:32:47.511Z,15.38
2024-03-10T03:35:18.242Z,13.80
2024-03-10T03:37:47.274Z,14.85
2024-03-10T03:40:15.385Z,15.00
2024-03-10T03:42:42.459Z,15.20
2024-03-10T03:45:10.096Z,15.63
2024-03-10T03:47:38.283Z,15.02
2024-03-10T03:50:06.012Z,15.23
2024-03-10T03:52:33.091Z,14.47
2024-03-10T03:55:02.160Z,13.00
2024-03-10T03:57:29.098Z,9.48
2024-03-10T03:59:56.471Z,16.08
2024-03-10T04:02:27.586Z,13.63
2024-03-10T04:04:56.186Z,14.80
2024-03-10T04:07:23.863Z,13.02
2024-03-10T04:09:50.708Z,15.85
2024-03-10T04:12:18.102Z,14.07
2024-03-10T04:14:45.462Z,14.95
2024-03-10T04:17:12.856Z,11.57
2024-03-10T04:19:40.156Z,15.23
2024-03-10T04:22:11.586Z,14.90
2024-03-10T04:24:42.895Z,13.70
2024-03-10T04:27:10.482Z,13.10
2024-03-10T04:29:37.942Z,12.30
2024-03-10T04:32:08.848Z,12.07
2024-03-10T04:34:37.549Z,12.27
2024-03-10T04:37:06.311Z,15.55
2024-03-10T04:39:33.212Z,13.60
2024-03-10T04:42:00.498Z,15.60
2024-03-10T04:44:27.453Z,13.63
2024-03-10T04:46:55.089Z,12.77
2024-03-10T04:49:22.377Z,11.85
2024-03-10T04:51:49.604Z,13.45
2024-03-10T04:54:16.851Z,13.77
2024-03-10T04:56:46.629Z,12.40
2024-03-10T04:59:13.994Z,14.90
2024-03-10T05:01:41.285Z,14.07
2024-03-10T05:04:08.364Z,13.57
2024-03-10T05:06:36.162Z,11.73
2024-03-10T05:09:04.662Z,14.68
2024-03-10T05:11:31.806Z,15.80
2024-03-10T05:14:00.266Z,15.38
2024-03-10T05:16:27.710Z,15.35
2024-03-10T05:18:56.034Z,14.40
2024-03-10T05:21:27.498Z,13.77
2024-03-10T05:23:55.044Z,13.13
2024-03-10T05:26:22.494Z,14.63
2024-03-10T05:28:49.501Z,14.40
2024-03-10T05:31:28.266Z,15.47
2024-03-10T05:34:00.800Z,16.10
2024-03-10T05:36:28.355Z,13.82
2024-03-10T05:38:55.762Z,12.63
2024-03-10T05:41:23.233Z,14.68
2024-03-10T05:43:50.693Z,14.70
2024-03-10T05:46:18.050Z,12.85
2024-03-10T05:48:46.247Z,13.27
2024-03-10T05:51:14.936Z,14.35
2024-03-10T05:53:42.118Z,15.02
2024-03-10T05:56:11.383Z,13.30
2024-03-10T05:58:41.547Z,13.85
2024-03-10T06:01:09.403Z,12.70
2024-03-10T06:03:36.906Z,12.88
2024-03-10T06:06:04.485Z,13.52
2024-03-10T06:08:31.993Z,14.73
2024-03-10T06:10:59.588Z,14.60
2024-03-10T06:13:27.023Z,14.13
2024-03-10T06:15:54.447Z,14.50
2024-03-10T06:18:32.988Z,19.58
2024-03-10T06:21:19.159Z,15.13
2024-03-10T06:24:05.267Z,13.35
2024-03-10T06:26:33.068Z,14.25
2024-03-10T06:29:02.133Z,15.20
2024-03-10T06:31:29.665Z,14.60
2024-03-10T06:33:58.929Z,14.33
2024-03-10T06:36:26.277Z,14.55
2024-03-10T06:38:54.196Z,13.63
2024-03-10T06:41:21.134Z,15.50
2024-03-10T06:43:48.318Z,14.18
2024-03-10T06:46:15.631Z,14.97
2024-03-10T06:48:43.109Z,15.50
2024-03-10T06:51:10.929Z,14.45
2024-03-10T06:53:38.540Z,15.43
2024-03-10T06:56:07.021Z,14.82
2024-03-10T06:58:34.060Z,14.27
2024-03-10T07:01:03.979Z,13.77
2024-03-10T07:03:32.182Z,13.27
2024-03-10T07:06:02.194Z,14.05
2024-03-10T07:08:31.794Z,14.20
2024-03-10T07:11:00.096Z,15.17
2024-03-10T07:13:27.047Z,12.93
2024-03-10T07:15:57.763Z,14.00
2024-03-10T07:18:24.678Z,13.82
2024-03-10T07:20:51.977Z,15.18
2024-03-10T07:23:23.173Z,13.50
2024-03-10T07:25:50.357Z,13.45
2024-03-10T07:28:17.760Z,13.70
2024-03-10T07:30:45.079Z,14.75
2024-03-10T07:33:12.381Z,13.13
2024-03-10T07:35:39.694Z,8.50
2024-03-10T07:38:07.390Z,13.68
2024-03-10T07:40:34.552Z,12.35
2024-03-10T07:43:02.008Z,13.52
2024-03-10T07:45:29.302Z,13.68
2024-03-10T07:47:57.404Z,14.13
2024-03-10T07:50:24.788Z,13.38
2024-03-10T07:52:52.117Z,15.25
2024-03-10T07:55:19.381Z,14.00
2024-03-10T07:57:46.762Z,13.05
2024-03-10T08:00:18.333Z,12.63
2024-03-10T08:02:45.935Z,13.20
2024-03-10T08:05:14.976Z,12.63
2024-03-10T08:07:45.356Z,13.35
2024-03-10T08:10:14.701Z,14.07
2024-03-10T08:12:44.534Z,13.00
2024-03-10T08:15:12.635Z,12.07
2024-03-10T08:17:40.286Z,12.75
2024-03-10T08:20:08.058Z,13.48
2024-03-10T08:22:38.236Z,13.90
2024-03-10T08:25:06.010Z,12.60
2024-03-10T08:27:33.648Z,12.32
2024-03-10T08:30:00.622Z,11.77
2024-03-10T08:32:28.400Z,11.30
2024-03-10T08:34:55.815Z,17.95
2024-03-10T08:37:23.232Z,12.23
2024-03-10T08:39:50.323Z,11.65
2024-03-10T08:42:17.869Z,11.57
2024-03-10T08:44:45.086Z,11.80
2024-03-10T08:47:12.536Z,12.70
2024-03-10T08:49:39.824Z,11.03
2024-03-10T08:52:08.174Z,12.07
2024-03-10T08:54:37.927Z,12.65
2024-03-10T08:57:05.850Z,10.32
2024-03-10T08:59:33.467Z,11.48
2024-03-10T09:02:02.168Z,12.33
2024-03-10T09:04:29.120Z,11.25
2024-03-10T09:06:55.967Z,10.68
2024-03-10T09:09:23.680Z,10.57
2024-03-10T09:11:51.182Z,13.57
2024-03-10T09:14:20.031Z,11.97
2024-03-10T09:16:47.425Z,11.82
2024-03-10T09:19:15.527Z,11.40
2024-03-10T09:21:44.619Z,12.02
2024-03-10T09:24:15.877Z,12.32
2024-03-10T09:26:43.221Z,11.83
2024-03-10T09:29:11.014Z,12.15
2024-03-10T09:31:41.241Z,11.65
2024-03-10T09:34:10.560Z,15.55
2024-03-10T09:36:37.949Z,11.00
2024-03-10T09:39:05.451Z,11.00
2024-03-10T09:41:33.061Z,11.57
2024-03-10T09:44:01.980Z,11.85
2024-03-10T09:46:30.782Z,12.07
2024-03-10T09:48:59.669Z,11.77
2024-03-10T09:51:29.178Z,10.27
2024-03-10T09:53:56.801Z,11.65
2024-03-10T09:56:25.818Z,11.18
2024-03-10T09:59:04.829Z,9.77
2024-03-10T10:01:35.162Z,11.10
2024-03-10T10:04:04.744Z,11.17
2024-03-10T10:06:33.057Z,8.95
2024-03-10T10:09:08.595Z,11.85
2024-03-10T10:11:36.418Z,10.00
2024-03-10T10:14:24.547Z,12.07
2024-03-10T10:17:00.326Z,11.13
2024-03-10T10:19:28.745Z,11.07
2024-03-10T10:21:56.159Z,11.48
2024-03-10T10:24:23.484Z,10.82
2024-03-10T10:27:00.407Z,10.77
2024-03-10T10:29:28.978Z,10.30
2024-03-10T10:32:01.332Z,11.23
2024-03-10T10:34:29.498Z,9.90
2024-03-10T10:36:57.618Z,11.73
2024-03-10T10:39:28.464Z,10.15
2024-03-10T10:42:00.103Z,11.83
2024-03-10T10:44:28.736Z,11.30
2024-03-10T10:46:56.178Z,11.40
2024-03-10T10:49:23.434Z,10.52
2024-03-10T10:51:57.916Z,12.23
2024-03-10T10:54:25.370Z,11.73
2024-03-10T10:56:56.814Z,11.73
2024-03-10T10:59:25.822Z,11.60
2024-03-10T11:01:57.556Z,12.40
2024-03-10T11:04:28.065Z,12.20
2024-03-10T11:06:56.666Z,11.97
2024-03-10T11:09:32.136Z,10.18
2024-03-10T11:12:00.031Z,13.38
2024-03-10T11:14:28.534Z,12.43
2024-03-10T11:17:17.501Z,10.68
2024-03-10T11:19:49.346Z,12.53
2024-03-10T11:22:21.806Z,11.38
2024-03-10T11:25:09.735Z,11.30
2024-03-10T11:27:46.877Z,11.90
2024-03-10T11:30:53.412Z,12.07
2024-03-10T11:33:24.714Z,12.33
2024-03-10T11:35:53.522Z,10.60
2024-03-10T11:38:22.254Z,12.43
2024-03-10T11:40:58.560Z,17.45
2024-03-10T11:43:27.493Z,12.90
2024-03-10T11:45:54.991Z,12.50
2024-03-10T11:48:24.631Z,13.20
2024-03-10T11:50:56.109Z,12.73
2024-03-10T11:53:23.656Z,11.18
2024-03-10T11:55:58.854Z,11.93
2024-03-10T11:58:26.251Z,12.53
2024-03-10T12:00:54.944Z,12.70
2024-03-10T12:03:22.431Z,13.63
2024-03-10T12:05:50.042Z,12.65
2024-03-10T12:08:20.118Z,12.38
2024-03-10T12:10:47.525Z,12.60
2024-03-10T12:13:20.542Z,12.10
2024-03-10T12:15:52.087Z,11.48
2024-03-10T12:18:19.635Z,11.98
2024-03-10T12:20:46.969Z,11.63
2024-03-10T12:23:14.056Z,11.20
2024-03-10T12:25:46.117Z,11.40
2024-03-10T12:28:14.468Z,12.65
2024-03-10T12:30:45.078Z,12.13
2024-03-10T12:33:13.036Z,12.77
2024-03-10T12:35:40.364Z,12.27
2024-03-10T12:38:07.733Z,13.02
2024-03-10T12:40:35.201Z,11.85
2024-03-10T12:43:02.554Z,12.82
2024-03-10T12:45:31.086Z,12.05
2024-03-10T12:47:58.639Z,13.23
2024-03-10T12:50:26.395Z,12.93
2024-03-10T12:52:53.857Z,13.13
2024-03-10T12:55:21.917Z,13.27
2024-03-10T12:57:49.229Z,13.73
2024-03-10T13:00:23.794Z,12.93
2024-03-10T13:02:52.461Z,13.57
2024-03-10T13:05:20.976Z,12.90
2024-03-10T13:07:48.126Z,12.27
2024-03-10T13:10:16.134Z,13.23
2024-03-10T13:12:45.805Z,12.70
2024-03-10T13:15:13.118Z,12.27
2024-03-10T13:17:40.734Z,12.55
2024-03-10T13:20:12.653Z,15.20
2024-03-10T13:22:40.176Z,12.70
2024-03-10T13:25:07.494Z,13.53
2024-03-10T13:27:36.417Z,13.07
2024-03-10T13:30:07.122Z,12.88
2024-03-10T13:32:34.846Z,12.75
2024-03-10T13:35:02.512Z,14.23
2024-03-10T13:37:32.497Z,12.63
2024-03-10T13:40:04.576Z,13.82
2024-03-10T13:42:31.897Z,13.15
2024-03-10T13:44:59.275Z,12.98
2024-03-10T13:47:26.793Z,13.93
2024-03-10T13:49:54.303Z,13.83
2024-03-10T13:52:21.924Z,12.05
2024-03-10T13:54:51.818Z,14.00
2024-03-10T13:57:20.604Z,14.15
2024-03-10T13:59:49.026Z,15.73
2024-03-10T14:02:16.531Z,13.37
2024-03-10T14:04:43.532Z,13.98
2024-03-10T14:07:11.903Z,15.38
2024-03-10T14:09:39.249Z,14.55
2024-03-10T14:12:07.008Z,13.45
2024-03-10T14:14:35.457Z,14.67
2024-03-10T14:17:05.099Z,13.88
2024-03-10T14:19:33.831Z,15.27
2024-03-10T14:22:01.182Z,14.77
2024-03-10T14:24:28.009Z,15.52
2024-03-10T14:26:57.639Z,14.83
2024-03-10T14:29:26.428Z,13.07
2024-03-10T14:31:54.346Z,15.13
2024-03-10T14:34:21.797Z,15.98
2024-03-10T14:36:49.034Z,13.65
2024-03-10T14:39:16.818Z,15.57
2024-03-10T14:41:44.125Z,16.55
2024-03-10T14:44:11.898Z,15.95
2024-03-10T14:46:39.061Z,16.38
2024-03-10T14:49:09.316Z,15.73
2024-03-10T14:51:39.863Z,16.33
2024-03-10T14:54:08.555Z,17.58
2024-03-10T14:56:35.536Z,18.52
2024-03-10T14:59:03.009Z,14.40
2024-03-10T15:01:33.785Z,17.10
2024-03-10T15:04:01.723Z,15.43
2024-03-10T15:06:29.225Z,15.88
2024-03-10T15:08:58.787Z,16.33
2024-03-10T15:11:26.357Z,14.60
2024-03-10T15:13:53.731Z,15.65
2024-03-10T15:16:22.433Z,11.57
2024-03-10T15:18:49.434Z,14.48
2024-03-10T15:21:16.938Z,15.65
2024-03-10T15:23:44.328Z,16.17
2024-03-10T15:26:11.545Z,15.07
2024-03-10T15:28:38.859Z,14.20
2024-03-10T15:31:06.150Z,15.70
2024-03-10T15:33:33.535Z,15.18
2024-03-10T15:36:00.912Z,15.57
2024-03-10T15:38:28.380Z,15.43
2024-03-10T15:40:55.408Z,16.53
2024-03-10T15:43:22.999Z,16.10
2024-03-10T15:45:50.493Z,15.30
2024-03-10T15:48:18.046Z,16.00
2024-03-10T15:50:45.028Z,16.20
2024-03-10T15:53:12.604Z,15.13
2024-03-10T15:55:39.850Z,31.83
2024-03-10T15:58:08.701Z,14.88
2024-03-10T16:00:35.775Z,15.20
2024-03-10T16:03:24.046Z,15.57
2024-03-10T16:05:59.470Z,15.47
2024-03-10T16:08:29.155Z,16.15
2024-03-10T16:10:56.583Z,15.50
2024-03-10T16:13:35.637Z,15.65
2024-03-10T16:16:03.939Z,15.32
2024-03-10T16:18:33.363Z,16.53
2024-03-10T16:21:01.257Z,16.67
2024-03-10T16:23:29.288Z,16.23
2024-03-10T16:25:56.879Z,16.77
2024-03-10T16:28:24.185Z,15.68
2024-03-10T16:30:53.146Z,15.93
2024-03-10T16:33:21.539Z,16.63
2024-03-10T16:35:48.821Z,16.55
2024-03-10T16:38:16.213Z,16.67
2024-03-10T16:40:43.568Z,16.20
2024-03-10T16:43:10.533Z,15.20
2024-03-10T16:45:39.461Z,16.63
2024-03-10T16:48:06.960Z,17.15
2024-03-10T16:50:34.757Z,15.90
2024-03-10T16:53:05.732Z,16.67
2024-03-10T16:55:33.240Z,17.20
2024-03-10T16:58:03.759Z,16.02
2024-03-10T17:00:34.322Z,17.85
2024-03-10T17:03:22.367Z,16.58
2024-03-10T17:05:55.558Z,17.42
2024-03-10T17:08:26.074Z,15.87
2024-03-10T17:10:54.361Z,16.98
2024-03-10T17:13:21.698Z,16.95
2024-03-10T17:15:48.626Z,16.65
2024-03-10T17:18:15.933Z,16.65
2024-03-10T17:20:43.977Z,16.53
2024-03-10T17:23:13.901Z,16.05
2024-03-10T17:25:41.414Z,17.27
2024-03-10T17:28:08.767Z,17.05
2024-03-10T17:30:36.339Z,16.85
2024-03-10T17:33:06.892Z,17.63
2024-03-10T17:35:34.207Z,27.00
2024-03-10T17:38:01.485Z,18.80
2024-03-10T17:40:29.068Z,19.13
2024-03-10T17:42:56.645Z,27.55
2024-03-10T17:45:26.010Z,23.70
2024-03-10T17:47:53.555Z,27.33
2024-03-10T17:50:21.536Z,28.75
2024-03-10T17:52:49.629Z,19.33
2024-03-10T17:55:17.476Z,16.10
2024-03-10T17:57:44.761Z,22.90
2024-03-10T18:00:14.849Z,22.05
2024-03-10T18:02:44.123Z,20.40
2024-03-10T18:05:15.139Z,18.88
2024-03-10T18:07:42.570Z,20.83
2024-03-10T18:10:09.827Z,18.20
2024-03-10T18:12:37.822Z,18.92
2024-03-10T18:15:07.934Z,17.55
2024-03-10T18:17:35.630Z,17.23
2024-03-10T18:20:03.919Z,17.63
2024-03-10T18:22:31.213Z,17.77
2024-03-10T18:24:58.511Z,17.35
2024-03-10T18:27:27.626Z,18.80
2024-03-10T18:29:55.198Z,17.33
2024-03-10T18:32:23.447Z,17.92
2024-03-10T18:34:50.600Z,17.27
2024-03-10T18:37:17.881Z,18.88
2024-03-10T18:39:44.725Z,18.50
2024-03-10T18:42:12.062Z,18.50
2024-03-10T18:44:39.436Z,17.77
2024-03-10T18:47:06.829Z,17.93
2024-03-10T18:49:33.776Z,19.63
2024-03-10T18:52:01.150Z,17.23
2024-03-10T18:54:28.393Z,18.80
2024-03-10T18:56:56.844Z,18.33
2024-03-10T18:59:24.134Z,17.43
2024-03-10T19:01:51.656Z,18.13
2024-03-10T19:04:20.334Z,17.60
2024-03-10T19:06:51.014Z,17.42
2024-03-10T19:09:19.428Z,18.60
2024-03-10T19:11:47.022Z,16.87
2024-03-10T19:14:14.618Z,18.70
2024-03-10T19:16:41.968Z,19.20
2024-03-10T19:19:09.941Z,18.40
2024-03-10T19:21:39.160Z,19.25
2024-03-10T19:24:06.689Z,18.73
2024-03-10T19:26:34.063Z,17.50
2024-03-10T19:29:01.569Z,18.15
2024-03-10T19:31:28.501Z,17.75
2024-03-10T19:33:55.727Z,17.42
2024-03-10T19:36:23.004Z,18.17
2024-03-10T19:38:50.394Z,18.13
2024-03-10T19:41:19.826Z,18.80
2024-03-10T19:43:47.957Z,17.05
2024-03-10T19:46:15.937Z,17.48
2024-03-10T19:48:43.263Z,19.17
2024-03-10T19:51:13.515Z,20.08
2024-03-10T19:53:41.510Z,20.33
2024-03-10T19:56:08.572Z,19.55
2024-03-10T19:58:36.018Z,19.90
2024-03-10T20:01:03.184Z,19.37
2024-03-10T20:03:30.964Z,19.77
2024-03-10T20:05:59.142Z,19.73
2024-03-10T20:08:26.505Z,18.92
2024-03-10T20:10:53.439Z,18.85
2024-03-10T20:13:20.785Z,18.83
2024-03-10T20:15:48.110Z,16.33
2024-03-10T20:18:15.038Z,17.83
2024-03-10T20:20:43.432Z,17.55
2024-03-10T20:23:10.819Z,19.35
2024-03-10T20:25:38.134Z,18.63
2024-03-10T20:28:07.563Z,17.40
2024-03-10T20:30:34.924Z,17.63
2024-03-10T20:33:02.298Z,18.10
2024-03-10T20:35:29.792Z,19.27
2024-03-10T20:37:57.303Z,17.93
2024-03-10T20:40:24.216Z,17.75
2024-03-10T20:42:52.308Z,17.77
2024-03-10T20:45:19.563Z,18.02
2024-03-10T20:47:49.168Z,17.67
2024-03-10T20:50:23.290Z,19.43
2024-03-10T20:52:51.461Z,18.73
2024-03-10T20:55:19.092Z,19.42
2024-03-10T20:57:46.516Z,18.33
2024-03-10T21:00:19.691Z,18.30
2024-03-10T21:02:49.011Z,18.03
2024-03-10T21:05:16.946Z,18.80
2024-03-10T21:07:44.864Z,17.65
2024-03-10T21:10:15.571Z,18.02
2024-03-10T21:12:43.532Z,17.63
2024-03-10T21:15:12.406Z,18.83
2024-03-10T21:17:40.079Z,19.23
2024-03-10T21:20:12.754Z,18.95
2024-03-10T21:22:40.615Z,19.00
2024-03-10T21:25:08.136Z,18.67
2024-03-10T21:27:35.492Z,17.43
2024-03-10T21:30:02.955Z,18.52
2024-03-10T21:32:30.293Z,16.98
2024-03-10T21:34:57.135Z,16.10
2024-03-10T21:37:25.925Z,18.50
2024-03-10T21:39:54.032Z,19.17
2024-03-10T21:42:22.700Z,19.95
2024-03-10T21:44:50.129Z,19.63
2024-03-10T21:47:17.718Z,19.33
2024-03-10T21:49:45.919Z,19.48
2024-03-10T21:52:12.725Z,20.13
2024-03-10T21:54:39.513Z,18.50
2024-03-10T21:57:06.543Z,20.00
2024-03-10T21:59:33.813Z,19.92
2024-03-10T22:02:01.609Z,20.15
2024-03-10T22:04:28.884Z,19.83
2024-03-10T22:06:56.158Z,17.35
2024-03-10T22:09:23.002Z,19.63
2024-03-10T22:11:51.813Z,18.95
2024-03-10T22:14:19.221Z,17.27
2024-03-10T22:16:46.482Z,19.43
2024-03-10T22:19:13.837Z,19.35
2024-03-10T22:21:41.477Z,18.75
2024-03-10T22:24:09.575Z,19.60
2024-03-10T22:26:36.972Z,19.80
2024-03-10T22:29:05.188Z,19.07
2024-03-10T22:31:33.210Z,18.10
2024-03-10T22:34:00.095Z,19.67
2024-03-10T22:36:27.438Z,20.15
2024-03-10T22:38:54.702Z,19.20
2024-03-10T22:41:22.005Z,18.87
2024-03-10T22:43:49.249Z,18.75
2024-03-10T22:46:16.478Z,19.98
2024-03-10T22:48:43.772Z,19.52
2024-03-10T22:51:10.990Z,20.02
2024-03-10T22:53:38.294Z,19.03
2024-03-10T22:56:05.748Z,19.05
2024-03-10T22:58:33.060Z,20.45
2024-03-10T23:01:00.769Z,21.00
2024-03-10T23:03:28.203Z,20.73
2024-03-10T23:05:56.018Z,20.23
2024-03-10T23:08:23.922Z,19.67
2024-03-10T23:10:52.432Z,20.85
2024-03-10T23:13:21.121Z,20.30
2024-03-10T23:15:50.472Z,20.27
2024-03-10T23:18:25.047Z,19.63
2024-03-10T23:20:57.054Z,15.05
2024-03-10T23:23:25.016Z,19.98
2024-03-10T23:25:56.267Z,17.77
2024-03-10T23:28:24.070Z,20.35
2024-03-10T23:30:51.470Z,21.03
2024-03-10T23:33:18.819Z,18.20
2024-03-10T23:35:47.078Z,20.20
2024-03-10T23:38:14.529Z,20.42
2024-03-10T23:40:41.750Z,20.25
2024-03-10T23:43:08.644Z,19.83
2024-03-10T23:45:36.037Z,20.08
2024-03-10T23:48:03.305Z,19.02
2024-03-10T23:50:30.921Z,20.95
2024-03-10T23:53:00.953Z,20.77
2024-03-10T23:55:59.938Z,19.77
2024-03-10T23:58:29.108Z,19.52
